Time;durP1;ratioP1;P1;durP2;ratioP2;P2;SDS_P1;SDS_P2;PMS_P1;PMS_P2;Temp;Humidity;BMP_temperature;BMP_pressure;BME280_temperature;BME280_humidity;BME280_pressure;Samples;Min_cycle;Max_cycle;Signal;HPM_P1;HPM_P2
2021/10/28 00:13:39;;;;;;;29.48;17.15;;;7.60;72.70;;;;;;5035074;28;20036;-33
2021/10/28 00:16:13;;;;;;;34.05;16.98;;;7.60;72.70;;;;;;5035744;28;20330;-38
2021/10/28 00:18:44;;;;;;;31.80;18.58;;;7.60;72.90;;;;;;5035512;28;20330;-41
2021/10/28 00:21:10;;;;;;;30.02;17.33;;;7.60;72.80;;;;;;5039058;28;20030;-33
2021/10/28 00:23:42;;;;;;;33.00;17.98;;;7.60;72.90;;;;;;5038930;28;20337;-37
2021/10/28 00:26:10;;;;;;;33.50;18.83;;;7.70;72.90;;;;;;5039365;28;20091;-33
2021/10/28 00:28:35;;;;;;;34.20;18.85;;;7.70;72.80;;;;;;5039001;28;20033;-37
2021/10/28 00:31:02;;;;;;;35.85;18.83;;;7.70;72.70;;;;;;5039315;28;20033;-32
2021/10/28 00:33:31;;;;;;;32.90;19.15;;;7.60;72.50;;;;;;5038833;28;20057;-34
2021/10/28 00:35:57;;;;;;;31.15;18.73;;;7.60;72.50;;;;;;5038942;28;20044;-34
2021/10/28 00:38:22;;;;;;;30.65;17.98;;;7.60;72.60;;;;;;5038508;28;20038;-38
2021/10/28 00:40:49;;;;;;;36.15;20.65;;;7.50;72.70;;;;;;5039166;28;20117;-33
2021/10/28 00:43:15;;;;;;;43.60;23.17;;;7.50;72.70;;;;;;5038664;28;20403;-38
2021/10/28 00:45:41;;;;;;;37.20;21.42;;;7.40;72.70;;;;;;5039271;28;20468;-33
2021/10/28 00:48:07;;;;;;;40.05;23.02;;;7.40;72.80;;;;;;5038329;28;20037;-33
2021/10/28 00:50:34;;;;;;;38.25;20.60;;;7.30;72.90;;;;;;5038978;28;20091;-33
2021/10/28 00:53:00;;;;;;;37.53;20.90;;;7.30;72.90;;;;;;5038668;28;20436;-39
2021/10/28 00:55:26;;;;;;;44.38;22.38;;;7.30;73.00;;;;;;5038302;28;20061;-39
2021/10/28 00:57:53;;;;;;;40.10;22.65;;;7.20;73.00;;;;;;5038183;28;20095;-38
2021/10/28 01:00:19;;;;;;;41.35;21.98;;;7.30;73.60;;;;;;5038740;28;20039;-39
2021/10/28 01:02:45;;;;;;;37.95;21.90;;;7.20;74.10;;;;;;5038099;28;20097;-33
2021/10/28 01:05:11;;;;;;;38.58;21.13;;;7.20;74.10;;;;;;5038535;28;20117;-33
2021/10/28 01:07:38;;;;;;;41.00;21.90;;;7.20;74.10;;;;;;5038314;28;20116;-39
2021/10/28 01:10:04;;;;;;;45.30;23.70;;;7.20;74.10;;;;;;5038116;28;20029;-39
2021/10/28 01:12:29;;;;;;;38.55;22.13;;;7.20;75.00;;;;;;5037875;28;20030;-38
2021/10/28 01:14:55;;;;;;;39.53;22.85;;;7.20;74.40;;;;;;5038359;28;20041;-33
2021/10/28 01:17:21;;;;;;;45.55;24.20;;;7.20;74.40;;;;;;5038038;28;20037;-34
2021/10/28 01:19:54;;;;;;;39.67;23.17;;;7.30;74.70;;;;;;5038331;28;20422;-39
2021/10/28 01:22:20;;;;;;;43.40;23.83;;;7.30;75.00;;;;;;5038081;28;20026;-38
2021/10/28 01:24:46;;;;;;;38.50;22.38;;;7.30;75.00;;;;;;5037966;28;20401;-32
2021/10/28 01:27:11;;;;;;;45.67;23.23;;;7.30;75.00;;;;;;5037813;28;20029;-38
2021/10/28 01:29:37;;;;;;;45.20;24.08;;;7.40;75.10;;;;;;5038039;28;20044;-36
2021/10/28 01:32:05;;;;;;;48.70;24.52;;;7.40;75.20;;;;;;5036746;28;20029;-40
2021/10/28 01:34:30;;;;;;;43.17;23.17;;;7.40;75.10;;;;;;5038009;28;20112;-33
2021/10/28 01:36:57;;;;;;;42.00;22.98;;;7.40;75.10;;;;;;5037920;28;20132;-33
2021/10/28 01:39:24;;;;;;;45.65;25.50;;;7.40;75.20;;;;;;5037828;28;20471;-33
2021/10/28 01:41:52;;;;;;;49.08;24.48;;;7.40;75.30;;;;;;5037527;28;20087;-33
2021/10/28 01:44:18;;;;;;;40.83;23.67;;;7.40;75.50;;;;;;5037856;28;20032;-39
2021/10/28 01:46:44;;;;;;;44.45;24.63;;;7.40;75.30;;;;;;5037621;28;20083;-33
2021/10/28 01:49:27;;;;;;;44.20;23.10;;;7.50;75.40;;;;;;5037654;28;20030;-33
2021/10/28 01:51:56;;;;;;;47.38;26.77;;;7.50;75.40;;;;;;5037183;28;20037;-33
2021/10/28 01:54:23;;;;;;;41.42;23.00;;;7.50;75.60;;;;;;5037328;28;20376;-38
2021/10/28 01:56:49;;;;;;;52.78;28.15;;;7.50;75.70;;;;;;5037261;28;20422;-32
2021/10/28 01:59:15;;;;;;;45.13;26.13;;;7.50;75.60;;;;;;5037421;28;20033;-33
2021/10/28 02:01:40;;;;;;;41.45;23.45;;;7.50;75.50;;;;;;5036923;28;20099;-39
2021/10/28 02:04:06;;;;;;;44.78;24.15;;;7.50;75.60;;;;;;5037023;28;20087;-39
2021/10/28 02:06:32;;;;;;;42.33;25.10;;;7.50;75.50;;;;;;5036829;28;20036;-38
2021/10/28 02:08:58;;;;;;;48.92;26.15;;;7.50;75.30;;;;;;5037108;28;20151;-39
2021/10/28 02:11:24;;;;;;;43.33;24.02;;;7.60;75.20;;;;;;5036911;28;20037;-38
2021/10/28 02:13:50;;;;;;;40.17;22.00;;;7.60;75.30;;;;;;5037195;28;20361;-33
2021/10/28 02:16:15;;;;;;;38.75;22.90;;;7.50;75.30;;;;;;5036955;28;20033;-38
2021/10/28 02:18:41;;;;;;;43.22;22.88;;;7.50;75.70;;;;;;5036557;28;20061;-33
2021/10/28 02:21:07;;;;;;;40.10;22.60;;;7.50;75.20;;;;;;5036791;28;20030;-33
2021/10/28 02:23:34;;;;;;;40.50;22.83;;;7.50;75.20;;;;;;5036336;28;20033;-33
2021/10/28 02:25:59;;;;;;;43.13;24.45;;;7.50;74.90;;;;;;5036879;28;20041;-34
2021/10/28 02:28:25;;;;;;;48.22;26.10;;;7.40;74.60;;;;;;5036717;28;20034;-39
2021/10/28 02:30:51;;;;;;;43.17;24.70;;;7.40;74.60;;;;;;5037214;28;20060;-38
2021/10/28 02:33:16;;;;;;;43.08;24.58;;;7.30;74.80;;;;;;5036444;28;20425;-33
2021/10/28 02:35:42;;;;;;;49.60;26.30;;;7.30;74.70;;;;;;5037029;28;20319;-34
2021/10/28 02:38:08;;;;;;;46.28;24.15;;;7.30;74.50;;;;;;5036334;28;20064;-33
2021/10/28 02:40:34;;;;;;;37.55;22.63;;;7.20;74.70;;;;;;5036977;28;20037;-38
2021/10/28 02:43:00;;;;;;;45.80;24.42;;;7.20;75.00;;;;;;5036108;28;20033;-34
2021/10/28 02:45:25;;;;;;;42.00;23.23;;;7.10;74.90;;;;;;5036771;28;20460;-40
2021/10/28 02:47:53;;;;;;;40.97;23.65;;;7.10;75.10;;;;;;5036321;28;20036;-38
2021/10/28 02:50:19;;;;;;;37.70;22.77;;;7.10;75.30;;;;;;5036717;28;20056;-39
2021/10/28 02:52:45;;;;;;;41.10;22.17;;;7.00;75.30;;;;;;5036190;28;20063;-39
2021/10/28 02:55:11;;;;;;;43.70;24.63;;;7.00;75.40;;;;;;5036404;28;20049;-33
2021/10/28 02:57:40;;;;;;;44.00;23.92;;;7.00;75.40;;;;;;5036169;28;20040;-40
2021/10/28 03:00:07;;;;;;;46.25;24.40;;;6.90;75.10;;;;;;5036430;28;20038;-40
2021/10/28 03:02:32;;;;;;;40.53;23.63;;;6.80;75.10;;;;;;5035695;28;20029;-39
2021/10/28 03:04:58;;;;;;;45.15;24.10;;;6.80;75.30;;;;;;5036228;28;20041;-34
2021/10/28 03:07:24;;;;;;;46.25;23.52;;;6.80;75.40;;;;;;5035872;28;20033;-39
2021/10/28 03:09:50;;;;;;;41.55;23.02;;;6.80;75.60;;;;;;5036385;28;20051;-33
2021/10/28 03:12:16;;;;;;;41.35;23.17;;;6.80;75.70;;;;;;5036165;28;20530;-34
2021/10/28 03:14:51;;;;;;;48.95;24.77;;;6.80;75.90;;;;;;5036356;28;20029;-38
2021/10/28 03:27:44;;;;;;;47.42;25.38;;;6.60;77.00;;;;;;5035766;28;20099;-34
2021/10/28 03:30:10;;;;;;;44.95;24.38;;;6.60;76.90;;;;;;5036127;28;20059;-33
2021/10/28 03:32:37;;;;;;;48.80;24.00;;;6.60;77.10;;;;;;5035443;28;20045;-39
2021/10/28 03:35:05;;;;;;;42.20;23.38;;;6.60;77.20;;;;;;5036005;28;20033;-34
2021/10/28 03:37:55;;;;;;;48.95;25.00;;;6.60;77.10;;;;;;5035676;28;20344;-33
2021/10/28 03:46:06;;;;;;;49.63;25.83;;;6.60;77.20;;;;;;5036189;28;20040;-38
2021/10/28 03:51:48;;;;;;;52.70;25.98;;;6.60;77.10;;;;;;5035975;28;20048;-33
2021/10/28 04:30:59;;;;;;;51.10;25.13;;;6.40;78.10;;;;;;5038806;28;20040;-33
2021/10/28 04:33:24;;;;;;;45.38;23.60;;;6.40;78.20;;;;;;5038511;28;20021;-39
2021/10/28 04:35:50;;;;;;;46.78;22.45;;;6.50;78.30;;;;;;5039280;28;20064;-39
2021/10/28 04:38:16;;;;;;;44.65;22.67;;;6.50;78.50;;;;;;5038421;28;20440;-33
2021/10/28 04:40:41;;;;;;;43.00;22.80;;;6.50;78.40;;;;;;5039162;28;20104;-34
2021/10/28 04:43:07;;;;;;;48.40;24.35;;;6.50;78.20;;;;;;5038446;28;20052;-33
2021/10/28 04:45:33;;;;;;;42.40;23.77;;;6.50;78.10;;;;;;5038823;28;20113;-39
2021/10/28 04:47:59;;;;;;;46.65;23.45;;;6.50;78.00;;;;;;5038286;28;20030;-33
2021/10/28 04:50:24;;;;;;;42.75;23.38;;;6.50;77.80;;;;;;5038868;28;20026;-33
2021/10/28 04:52:50;;;;;;;43.05;23.48;;;6.50;77.60;;;;;;5038152;28;20120;-33
2021/10/28 04:55:16;;;;;;;40.97;21.98;;;6.50;77.60;;;;;;5037969;28;20491;-33
2021/10/28 04:57:41;;;;;;;41.67;23.15;;;6.40;77.50;;;;;;5038274;28;20034;-39
2021/10/28 05:00:08;;;;;;;48.83;24.23;;;6.40;77.50;;;;;;5038747;28;20033;-34
2021/10/28 05:02:33;;;;;;;45.10;22.05;;;6.40;77.50;;;;;;5038607;28;20296;-40
2021/10/28 05:04:59;;;;;;;45.58;24.13;;;6.40;77.50;;;;;;5037814;28;20112;-40
2021/10/28 05:07:25;;;;;;;48.55;24.60;;;6.30;77.50;;;;;;5037946;28;20033;-34
2021/10/28 05:09:51;;;;;;;45.03;23.90;;;6.30;77.50;;;;;;5038372;28;20040;-42
2021/10/28 05:12:16;;;;;;;48.75;25.65;;;6.30;77.50;;;;;;5038119;28;20072;-39
2021/10/28 05:14:42;;;;;;;53.65;27.63;;;6.30;77.50;;;;;;5038420;28;20140;-34
2021/10/28 05:17:08;;;;;;;55.65;27.77;;;6.30;77.60;;;;;;5037895;28;20414;-40
2021/10/28 05:19:38;;;;;;;55.55;27.50;;;6.30;77.80;;;;;;5039792;28;20385;-33
2021/10/28 05:22:05;;;;;;;53.38;28.27;;;6.30;77.90;;;;;;5046395;28;20044;-33
2021/10/28 05:24:32;;;;;;;50.47;26.60;;;6.30;78.00;;;;;;5038117;28;20100;-33
2021/10/28 05:26:57;;;;;;;54.72;26.80;;;6.30;78.10;;;;;;5037749;28;20361;-39
2021/10/28 05:29:23;;;;;;;58.78;28.52;;;6.30;78.20;;;;;;5037992;28;20025;-39
2021/10/28 05:31:49;;;;;;;45.60;25.63;;;6.30;78.10;;;;;;5037167;28;20425;-34
2021/10/28 05:34:15;;;;;;;52.78;26.25;;;6.30;78.20;;;;;;5037493;28;20029;-33
2021/10/28 05:36:40;;;;;;;63.15;30.33;;;6.40;78.30;;;;;;5037233;28;20038;-33
2021/10/28 05:39:06;;;;;;;53.97;26.65;;;6.40;78.30;;;;;;5037649;28;20060;-33
2021/10/28 05:41:32;;;;;;;42.72;24.17;;;6.40;78.30;;;;;;5037562;28;20083;-40
2021/10/28 05:43:57;;;;;;;48.65;26.23;;;6.40;78.30;;;;;;5037477;28;20406;-32
2021/10/28 05:46:23;;;;;;;46.13;26.00;;;6.40;78.30;;;;;;5037152;28;20029;-32
2021/10/28 05:48:49;;;;;;;46.80;25.63;;;6.50;78.30;;;;;;5037135;28;20037;-39
2021/10/28 05:51:16;;;;;;;53.95;25.27;;;6.50;78.30;;;;;;5037172;28;20033;-33
2021/10/28 05:53:41;;;;;;;48.38;26.73;;;6.60;78.40;;;;;;5037047;28;20156;-33
2021/10/28 05:56:07;;;;;;;71.18;29.90;;;6.60;78.40;;;;;;5036951;28;20124;-39
2021/10/28 05:58:33;;;;;;;57.28;27.92;;;6.60;78.40;;;;;;5037119;28;20429;-33
2021/10/28 06:01:01;;;;;;;49.10;27.33;;;6.70;78.40;;;;;;5036884;28;20437;-39
2021/10/28 06:03:28;;;;;;;52.10;28.00;;;6.70;78.40;;;;;;5036957;28;20433;-33
2021/10/28 06:05:54;;;;;;;56.80;29.52;;;6.80;78.50;;;;;;5036699;28;20112;-32
2021/10/28 06:08:19;;;;;;;58.83;29.67;;;6.80;78.60;;;;;;5036884;28;20167;-40
2021/10/28 06:10:45;;;;;;;51.67;28.15;;;6.90;78.70;;;;;;5037431;28;20105;-34
2021/10/28 06:13:11;;;;;;;70.28;28.25;;;6.90;78.60;;;;;;5037112;28;20291;-34
2021/10/28 06:15:36;;;;;;;56.33;27.52;;;7.00;78.70;;;;;;5037217;28;20036;-41
2021/10/28 06:20:48;;;;;;;51.67;28.25;;;7.20;79.00;;;;;;5036713;28;20041;-39
2021/10/28 06:23:14;;;;;;;54.63;29.40;;;7.30;79.00;;;;;;5036365;28;20026;-39
2021/10/28 06:25:40;;;;;;;54.38;26.98;;;7.40;79.00;;;;;;5036763;28;20041;-33
2021/10/28 06:28:05;;;;;;;51.78;29.35;;;7.50;79.10;;;;;;5035920;28;20342;-34
2021/10/28 06:30:32;;;;;;;51.63;24.90;;;7.60;79.10;;;;;;5036680;28;20026;-34
2021/10/28 06:33:09;;;;;;;50.50;28.40;;;7.80;79.00;;;;;;5036179;28;20030;-34
2021/10/28 06:35:39;;;;;;;48.33;26.15;;;7.90;78.90;;;;;;5036789;28;20036;-39
2021/10/28 06:38:05;;;;;;;46.60;24.67;;;8.10;78.70;;;;;;5036375;28;20322;-34
2021/10/28 06:40:31;;;;;;;48.28;25.13;;;8.20;78.50;;;;;;5036824;28;20080;-34
2021/10/28 06:42:57;;;;;;;51.75;24.75;;;8.40;78.20;;;;;;5041542;28;20029;-33
2021/10/28 06:45:23;;;;;;;43.55;25.38;;;8.50;78.00;;;;;;5056198;28;20067;-33
2021/10/28 06:47:49;;;;;;;41.08;23.88;;;8.60;77.80;;;;;;5055360;28;20409;-39
2021/10/28 06:50:18;;;;;;;59.60;26.13;;;8.70;77.80;;;;;;5055976;28;20025;-34
2021/10/28 06:55:26;;;;;;;49.63;22.48;;;9.00;77.40;;;;;;5055425;28;20333;-39
2021/10/28 07:03:05;;;;;;;53.70;23.23;;;9.40;77.30;;;;;;5055265;28;20540;-33
2021/10/28 07:05:30;;;;;;;45.45;24.30;;;9.50;77.10;;;;;;5055563;28;20073;-36
2021/10/28 07:07:56;;;;;;;44.50;23.40;;;9.70;76.90;;;;;;5054974;28;20033;-35
2021/10/28 07:10:24;;;;;;;39.15;21.70;;;9.80;76.60;;;;;;5055975;28;20405;-41
2021/10/28 07:15:31;;;;;;;39.83;20.27;;;10.00;75.90;;;;;;5055801;28;20313;-41
2021/10/28 07:20:45;;;;;;;33.47;19.92;;;10.30;75.10;;;;;;5055662;28;20029;-38
2021/10/28 07:34:04;;;;;;;40.08;21.70;;;10.90;74.10;;;;;;5055337;28;20115;-34
2021/10/28 07:39:42;;;;;;;39.60;21.55;;;11.10;73.60;;;;;;5055338;28;20482;-34
2021/10/28 08:20:32;;;;;;;24.15;15.60;;;12.90;69.10;;;;;;5055248;28;20052;-41
2021/10/28 08:23:09;;;;;;;28.88;17.08;;;13.10;68.60;;;;;;5054807;28;20037;-40
2021/10/28 08:31:04;;;;;;;23.17;15.80;;;13.40;67.30;;;;;;5054633;28;20040;-33
2021/10/28 08:33:30;;;;;;;25.70;15.90;;;13.50;66.90;;;;;;5054508;28;20033;-39
2021/10/28 08:36:06;;;;;;;29.55;16.77;;;13.60;66.30;;;;;;5054597;28;20037;-33
2021/10/28 08:38:34;;;;;;;25.25;16.23;;;13.60;66.10;;;;;;5054617;28;20436;-40
2021/10/28 08:41:02;;;;;;;26.30;16.20;;;13.70;65.90;;;;;;5056937;28;20120;-34
2021/10/28 08:43:32;;;;;;;31.10;16.73;;;13.70;65.50;;;;;;5057963;28;20029;-40
2021/10/28 08:46:00;;;;;;;25.15;15.75;;;13.80;65.40;;;;;;5058307;28;20168;-38
2021/10/28 08:48:28;;;;;;;37.70;18.40;;;13.80;65.40;;;;;;5057712;28;20029;-40
2021/10/28 08:51:07;;;;;;;27.60;16.77;;;13.80;65.30;;;;;;5057898;28;20037;-35
2021/10/28 09:25:19;;;;;;;22.75;15.02;;;13.90;64.60;;;;;;5055523;28;20083;-34
2021/10/28 09:30:56;;;;;;;27.20;16.85;;;14.00;64.80;;;;;;5057054;28;19963;-33
2021/10/28 09:34:10;;;;;;;28.25;17.90;;;14.10;64.70;;;;;;5057016;28;20034;-35
2021/10/28 09:47:46;;;;;;;29.70;15.98;;;14.40;63.80;;;;;;5056599;28;20022;-35
2021/10/28 09:50:45;;;;;;;25.38;15.65;;;14.40;63.90;;;;;;5057356;28;20052;-34
2021/10/28 09:53:10;;;;;;;30.17;14.82;;;14.50;63.60;;;;;;5054376;28;20477;-40
2021/10/28 09:58:27;;;;;;;31.70;14.90;;;14.50;63.00;;;;;;5056405;28;20362;-35
2021/10/28 10:00:53;;;;;;;19.63;13.35;;;14.60;62.90;;;;;;5057040;28;20087;-40
2021/10/28 10:03:28;;;;;;;46.88;16.45;;;14.50;62.80;;;;;;5056199;28;20032;-40
2021/10/28 10:06:02;;;;;;;21.15;13.60;;;14.60;62.70;;;;;;5056725;28;20035;-33
2021/10/28 10:08:32;;;;;;;18.92;11.93;;;14.50;62.70;;;;;;5056291;28;20017;-35
2021/10/28 10:10:58;;;;;;;31.30;13.15;;;14.60;62.50;;;;;;5056650;28;20040;-34
2021/10/28 10:13:29;;;;;;;25.85;13.07;;;14.50;62.30;;;;;;5056228;28;20061;-40
2021/10/28 10:15:57;;;;;;;21.88;11.73;;;14.60;62.20;;;;;;5056470;28;20064;-35
2021/10/28 10:18:37;;;;;;;43.20;13.38;;;14.50;62.20;;;;;;5056126;28;20036;-40
2021/10/28 10:21:14;;;;;;;20.13;12.32;;;14.50;62.40;;;;;;5056706;28;20037;-33
2021/10/28 10:30:03;;;;;;;19.67;12.55;;;14.60;62.30;;;;;;5056696;28;20106;-41
2021/10/28 11:28:03;;;;;;;18.20;12.68;;;14.80;62.60;;;;;;5055336;28;20032;-42
2021/10/28 12:21:54;;;;;;;22.50;12.15;;;15.30;61.40;;;;;;5039116;28;20099;-41
2021/10/28 12:44:34;;;;;;;27.15;13.23;;;15.10;61.70;;;;;;5038660;28;20055;-40
2021/10/28 14:27:35;;;;;;;27.08;16.67;;;14.80;63.60;;;;;;5056420;28;20390;-40
2021/10/28 14:32:59;;;;;;;28.75;17.45;;;14.80;63.80;;;;;;5056480;28;20057;-41
2021/10/28 15:03:27;;;;;;;58.25;35.28;;;14.60;64.90;;;;;;5055919;28;20028;-35
2021/10/28 15:35:36;;;;;;;52.10;32.38;;;14.60;65.50;;;;;;5055852;28;20112;-34
2021/10/28 16:23:21;;;;;;;48.85;29.92;;;14.30;66.60;;;;;;5059271;28;20448;-39
2021/10/28 16:25:47;;;;;;;55.03;32.22;;;14.30;66.70;;;;;;5059528;28;20052;-34
2021/10/28 16:28:17;;;;;;;48.78;29.13;;;14.30;66.80;;;;;;5059014;28;20036;-40
2021/10/28 16:30:47;;;;;;;55.80;29.92;;;14.30;66.90;;;;;;5059447;28;20289;-36
2021/10/28 16:33:14;;;;;;;52.75;29.88;;;14.30;66.90;;;;;;5059024;28;20063;-42
2021/10/28 16:35:40;;;;;;;45.95;24.23;;;14.20;66.90;;;;;;5059141;28;20033;-41
2021/10/28 16:38:08;;;;;;;39.25;24.42;;;14.30;66.90;;;;;;5058579;28;20040;-34
2021/10/28 16:40:35;;;;;;;49.20;24.15;;;14.20;66.90;;;;;;5059124;28;20033;-34
2021/10/28 16:43:01;;;;;;;43.42;25.65;;;14.20;66.90;;;;;;5058355;28;20032;-34
2021/10/28 16:45:26;;;;;;;41.03;24.45;;;14.20;67.00;;;;;;5058915;28;20033;-40
2021/10/28 16:47:52;;;;;;;45.45;24.27;;;14.20;67.00;;;;;;5057339;28;20112;-34
2021/10/28 16:50:18;;;;;;;48.53;23.27;;;14.30;67.00;;;;;;5058893;28;20035;-34
2021/10/28 16:52:43;;;;;;;41.92;23.90;;;14.20;67.00;;;;;;5058033;28;20048;-36
2021/10/28 16:55:09;;;;;;;36.17;23.08;;;14.20;67.00;;;;;;5058391;28;20052;-34
2021/10/28 16:57:35;;;;;;;42.25;24.17;;;14.20;67.00;;;;;;5058177;28;20507;-38
2021/10/28 17:00:01;;;;;;;39.08;21.63;;;14.20;67.10;;;;;;5058658;28;20025;-40
2021/10/28 17:02:28;;;;;;;43.28;23.45;;;14.20;67.10;;;;;;5057331;28;20120;-42
2021/10/28 17:04:54;;;;;;;37.40;23.63;;;14.20;67.10;;;;;;5057338;28;20017;-35
2021/10/28 17:07:20;;;;;;;32.88;20.55;;;14.20;67.10;;;;;;5057923;28;20321;-36
2021/10/28 17:09:45;;;;;;;44.80;26.15;;;14.20;67.10;;;;;;5058396;28;20104;-40
2021/10/28 17:12:11;;;;;;;35.65;22.23;;;14.20;67.10;;;;;;5058177;28;20079;-36
2021/10/28 17:14:37;;;;;;;45.42;24.52;;;14.20;67.10;;;;;;5058394;28;20032;-40
2021/10/28 17:17:03;;;;;;;42.15;24.10;;;14.20;67.10;;;;;;5057981;28;20318;-39
2021/10/28 17:19:28;;;;;;;55.83;31.40;;;14.20;67.10;;;;;;5058052;28;20036;-41
2021/10/28 17:21:54;;;;;;;47.50;26.50;;;14.20;67.10;;;;;;5058109;28;20040;-40
2021/10/28 17:24:23;;;;;;;50.28;28.85;;;14.20;67.10;;;;;;5058038;28;20032;-33
2021/10/28 17:26:49;;;;;;;75.53;37.92;;;14.20;67.20;;;;;;5057561;28;20025;-40
2021/10/28 17:29:15;;;;;;;46.28;28.10;;;14.20;67.20;;;;;;5057904;28;20040;-34
2021/10/28 17:31:41;;;;;;;77.03;45.63;;;14.20;67.30;;;;;;5057809;28;20081;-39
2021/10/28 17:34:07;;;;;;;54.45;30.67;;;14.20;67.30;;;;;;5058319;28;20451;-35
2021/10/28 17:36:33;;;;;;;56.05;32.22;;;14.20;67.40;;;;;;5057309;28;20417;-40
2021/10/28 17:38:59;;;;;;;53.13;31.50;;;14.20;67.50;;;;;;5057576;28;20032;-39
2021/10/28 17:41:26;;;;;;;51.15;30.67;;;14.20;67.50;;;;;;5057601;28;20036;-34
2021/10/28 17:43:54;;;;;;;52.85;29.33;;;14.20;67.60;;;;;;5057517;28;20309;-35
2021/10/28 17:46:21;;;;;;;41.20;25.17;;;14.20;67.60;;;;;;5057060;28;20033;-35
2021/10/28 17:48:49;;;;;;;53.15;30.02;;;14.20;67.70;;;;;;5057334;28;20056;-34
2021/10/28 17:51:15;;;;;;;49.33;28.10;;;14.20;67.70;;;;;;5057094;28;20116;-34
2021/10/28 17:53:44;;;;;;;46.30;27.70;;;14.20;67.70;;;;;;5057052;28;20135;-34
2021/10/28 17:56:11;;;;;;;50.65;29.38;;;14.20;67.70;;;;;;5057082;28;20048;-34
2021/10/28 17:58:37;;;;;;;45.30;29.13;;;14.20;67.80;;;;;;5056595;28;20125;-40
2021/10/28 18:01:03;;;;;;;47.42;28.95;;;14.20;67.90;;;;;;5057047;28;20112;-40
2021/10/28 18:03:28;;;;;;;45.83;28.52;;;14.20;68.00;;;;;;5057077;28;20021;-39
2021/10/28 18:05:55;;;;;;;46.20;26.40;;;14.20;68.00;;;;;;5057269;28;20032;-34
2021/10/28 18:08:21;;;;;;;47.60;29.13;;;14.20;68.10;;;;;;5056986;28;20474;-34
2021/10/28 18:10:47;;;;;;;41.75;24.17;;;14.20;68.10;;;;;;5057624;28;20056;-39
2021/10/28 18:13:13;;;;;;;38.20;23.25;;;14.20;68.10;;;;;;5055990;28;20025;-39
2021/10/28 18:15:40;;;;;;;36.25;23.80;;;14.20;68.20;;;;;;5057386;28;20350;-39
2021/10/28 18:18:06;;;;;;;39.53;22.67;;;14.20;68.20;;;;;;5056915;28;20086;-43
2021/10/28 18:20:32;;;;;;;38.08;23.48;;;14.20;68.20;;;;;;5055883;28;20411;-34
2021/10/28 18:22:58;;;;;;;35.40;22.05;;;14.20;68.20;;;;;;5056671;28;20086;-40
2021/10/28 18:25:24;;;;;;;41.33;23.50;;;14.20;68.20;;;;;;5056929;28;20086;-34
2021/10/28 18:27:56;;;;;;;42.17;25.30;;;14.30;68.40;;;;;;5056695;28;20464;-35
2021/10/28 18:30:24;;;;;;;45.22;26.30;;;14.20;68.30;;;;;;5056624;28;20059;-36
2021/10/28 18:32:50;;;;;;;53.55;25.33;;;14.20;68.40;;;;;;5056433;28;20024;-39
2021/10/28 18:35:16;;;;;;;51.80;26.95;;;14.20;68.40;;;;;;5056837;28;20467;-39
2021/10/28 18:37:44;;;;;;;40.72;22.67;;;14.20;69.00;;;;;;5056596;28;20365;-34
2021/10/28 18:40:12;;;;;;;37.67;21.35;;;14.20;68.50;;;;;;5056769;28;20394;-33
2021/10/28 18:42:38;;;;;;;39.50;23.75;;;14.20;68.60;;;;;;5056186;28;20029;-34
2021/10/28 18:45:06;;;;;;;36.80;21.67;;;14.20;68.60;;;;;;5056763;28;20453;-39
2021/10/28 18:47:35;;;;;;;37.30;21.92;;;14.20;68.60;;;;;;5056500;28;20025;-34
2021/10/28 18:50:02;;;;;;;34.65;20.63;;;14.20;68.60;;;;;;5056613;28;20107;-39
2021/10/28 18:52:29;;;;;;;36.88;24.80;;;14.20;68.70;;;;;;5056059;28;20061;-39
2021/10/28 18:54:55;;;;;;;46.63;27.88;;;14.20;68.70;;;;;;5056294;28;20049;-34
2021/10/28 18:57:21;;;;;;;36.72;22.08;;;14.20;68.70;;;;;;5056359;28;20061;-35
2021/10/28 18:59:48;;;;;;;33.47;21.27;;;14.20;68.80;;;;;;5056275;28;20044;-39
2021/10/28 19:02:15;;;;;;;43.13;24.80;;;14.20;68.80;;;;;;5056403;28;20052;-39
2021/10/28 19:04:41;;;;;;;49.33;25.15;;;14.10;68.90;;;;;;5056334;28;20036;-39
2021/10/28 19:07:09;;;;;;;62.03;30.65;;;14.10;69.00;;;;;;5055815;28;20033;-39
2021/10/28 19:09:34;;;;;;;70.57;30.13;;;14.10;69.20;;;;;;5056133;28;20064;-39
2021/10/28 19:12:00;;;;;;;49.55;26.35;;;14.10;70.00;;;;;;5055641;28;20077;-35
2021/10/28 19:14:27;;;;;;;48.33;24.58;;;14.10;69.50;;;;;;5056127;28;20037;-39
2021/10/28 19:16:53;;;;;;;56.60;29.08;;;14.20;69.70;;;;;;5054638;28;20037;-35
2021/10/28 19:19:19;;;;;;;78.65;39.55;;;14.10;69.80;;;;;;5055688;28;20083;-39
2021/10/28 19:21:45;;;;;;;59.17;28.95;;;14.10;70.10;;;;;;5055804;28;20028;-35
2021/10/28 19:24:10;;;;;;;39.90;23.83;;;14.10;70.20;;;;;;5055937;28;20025;-39
2021/10/28 19:26:36;;;;;;;45.53;25.88;;;14.10;70.30;;;;;;5055370;28;20080;-34
2021/10/28 19:29:05;;;;;;;55.55;28.23;;;14.10;70.40;;;;;;5055974;28;20033;-34
2021/10/28 19:31:35;;;;;;;58.60;27.90;;;14.10;70.40;;;;;;5055670;28;20052;-35
2021/10/28 19:34:02;;;;;;;47.40;24.17;;;14.10;70.60;;;;;;5055988;28;20036;-39
2021/10/28 19:36:44;;;;;;;53.70;28.02;;;14.00;70.60;;;;;;5055521;28;20043;-40
2021/10/28 19:42:06;;;;;;;46.78;26.85;;;14.00;70.80;;;;;;5056090;28;20171;-34
2021/10/28 19:47:16;;;;;;;38.85;23.63;;;14.00;71.00;;;;;;5055323;28;20468;-39
2021/10/28 19:49:44;;;;;;;33.88;18.95;;;14.00;71.10;;;;;;5055823;28;20025;-39
2021/10/28 19:52:12;;;;;;;41.67;26.02;;;14.00;71.30;;;;;;5055634;28;20033;-40
2021/10/28 19:54:39;;;;;;;30.20;18.83;;;14.00;71.90;;;;;;5055477;28;20049;-34
2021/10/28 19:57:11;;;;;;;41.22;24.90;;;13.90;71.30;;;;;;5055566;28;20409;-35
2021/10/28 19:59:39;;;;;;;36.47;23.83;;;13.90;71.30;;;;;;5055631;28;20041;-38
2021/10/28 20:02:12;;;;;;;31.17;19.08;;;14.00;71.50;;;;;;5055187;28;20324;-35
2021/10/28 20:07:20;;;;;;;32.92;21.70;;;13.90;71.50;;;;;;5055147;28;20047;-40
2021/10/28 20:15:26;;;;;;;34.03;22.83;;;13.90;71.60;;;;;;5055705;28;20032;-34
2021/10/28 20:20:38;;;;;;;29.58;18.30;;;13.90;71.60;;;;;;5055626;28;20178;-34
2021/10/28 20:23:04;;;;;;;35.50;22.02;;;13.90;71.60;;;;;;5054969;28;20032;-39
2021/10/28 20:25:30;;;;;;;29.33;18.08;;;13.90;71.60;;;;;;5055284;28;20028;-39
2021/10/28 20:27:57;;;;;;;31.10;20.55;;;13.90;71.60;;;;;;5055289;28;20067;-39
2021/10/28 20:30:28;;;;;;;29.73;18.15;;;13.90;71.70;;;;;;5055437;28;20036;-39
2021/10/28 20:32:54;;;;;;;24.95;17.55;;;13.90;71.60;;;;;;5055325;28;20425;-34
2021/10/28 20:37:52;;;;;;;38.97;20.17;;;13.90;71.60;;;;;;5058773;28;20086;-38
2021/10/28 20:40:19;;;;;;;34.33;19.67;;;13.90;71.60;;;;;;5058646;28;20036;-39
2021/10/28 20:42:49;;;;;;;31.70;19.23;;;13.90;71.70;;;;;;5058969;28;20135;-35
2021/10/28 20:45:24;;;;;;;26.13;17.52;;;13.90;71.70;;;;;;5059009;28;20041;-39
2021/10/28 20:47:52;;;;;;;32.50;20.17;;;13.90;71.60;;;;;;5058819;28;20033;-34
2021/10/28 20:50:21;;;;;;;26.55;18.05;;;13.90;71.70;;;;;;5058983;28;20036;-35
2021/10/28 20:52:47;;;;;;;30.15;18.70;;;13.80;71.70;;;;;;5058724;28;20372;-39
2021/10/28 20:55:13;;;;;;;31.92;18.23;;;13.90;71.70;;;;;;5058433;28;20053;-39
2021/10/28 20:57:40;;;;;;;29.70;19.30;;;13.90;71.80;;;;;;5058368;28;20032;-35
2021/10/28 21:00:13;;;;;;;25.65;16.50;;;13.90;71.80;;;;;;5058744;28;20095;-35
2021/10/28 21:02:40;;;;;;;29.85;19.27;;;13.90;71.80;;;;;;5058128;28;20116;-40
2021/10/28 21:05:12;;;;;;;32.28;18.23;;;13.80;71.80;;;;;;5058030;28;20108;-39
2021/10/28 21:07:40;;;;;;;33.05;19.40;;;13.90;71.80;;;;;;5058280;28;20112;-39
2021/10/28 21:10:07;;;;;;;34.60;20.25;;;13.90;71.90;;;;;;5058604;28;20039;-39
2021/10/28 21:12:33;;;;;;;31.80;18.67;;;13.90;71.90;;;;;;5057903;28;20032;-34
2021/10/28 21:14:59;;;;;;;30.92;17.60;;;13.90;72.00;;;;;;5058528;28;20040;-34
2021/10/28 21:17:25;;;;;;;29.30;18.73;;;13.90;72.00;;;;;;5057999;28;20087;-34
2021/10/28 21:19:50;;;;;;;33.58;19.08;;;13.80;71.90;;;;;;5058164;28;20024;-40
2021/10/28 21:22:16;;;;;;;32.90;18.23;;;13.80;71.90;;;;;;5058197;28;20082;-34
2021/10/28 21:24:45;;;;;;;25.98;17.70;;;13.80;71.90;;;;;;5058380;28;20124;-35
2021/10/28 21:27:12;;;;;;;31.33;18.45;;;13.80;72.00;;;;;;5057574;28;20036;-35
2021/10/28 21:29:39;;;;;;;32.17;17.65;;;13.80;72.00;;;;;;5058217;28;20405;-34
2021/10/28 21:32:06;;;;;;;26.95;17.52;;;13.80;72.10;;;;;;5057960;28;20044;-35
2021/10/28 21:34:31;;;;;;;25.63;16.10;;;13.80;72.10;;;;;;5058138;28;20318;-39
2021/10/28 21:36:57;;;;;;;24.67;16.55;;;13.80;72.10;;;;;;5057898;28;20025;-39
2021/10/28 21:39:23;;;;;;;23.83;15.70;;;13.80;72.10;;;;;;5057906;28;20040;-40
2021/10/28 21:41:49;;;;;;;26.58;16.70;;;13.80;72.20;;;;;;5057517;28;20032;-41